Main page
METAR-TAF:

METAR-TAF

Airports :

El Salvador, El Salvador

Monseñor Óscar Arnulfo Romero International Airport

latitude: 13-26N, longitude: 089-03W, elevation: 25 m

Current weather observation

The report was made 36 minutes ago, at 00:50 UTC
Wind 4 kt from the Southwest
Temperature 28°C
Humidity 70%
Pressure 1011 hPa
Visibility 10 km or more
Few clouds at a height of 5200 ft

METAR: MSLP 290050Z 22004KT 9999 FEW052 28/22 Q1010 A2984

Time: 19:26 (01:26 UTC)

Forecast

The report was made 3 hours and 36 minutes ago, at 21:50 UTC
Forecast valid from 29 at 00 UTC to 29 at 24 UTC
Wind 3 kt from variable directions
Visibility 10 km or more
Scattered clouds at a height of 2700 ft
From 29 at 1200 UTC
Visibility: 9000 m
From 29 at 1800 UTC
Wind 8 kt from the Southwest
Visibility 10 km or more
Few clouds at a height of 4700 ft

TAF: MSLP 282150Z 2900/2924 VRB03KT 9999 SCT027 TX33/2918Z TN23/2910Z FM291200 9000 NSC FM291800 22008KT 9999 FEW047

Weather observations and forecasts of more than 4000 airports (METAR and TAF reports).

The available stations are represented by yellow and red dots on the map.

Hover mouse over dot to see the name of the station.

Then click to see weather observations and forecasts.

To change the map : click on the green buttons with a black cross to zoom in, on the green button with a dash to zoom out, or on the green arrows for adjacent maps.


METAR-TAF: